createdAt,value
2018-08-28T00:01:24.721Z,80.09
2018-08-28T00:03:53.902Z,80.66
2018-08-28T00:06:22.474Z,80.70
2018-08-28T00:08:51.276Z,80.80
2018-08-28T00:11:19.677Z,81.12
2018-08-28T00:13:48.249Z,81.02
2018-08-28T00:16:16.941Z,80.94
2018-08-28T00:18:45.339Z,81.17
2018-08-28T00:21:13.769Z,81.26
2018-08-28T00:23:42.177Z,80.55
2018-08-28T00:26:10.677Z,81.05
2018-08-28T00:28:39.078Z,80.64
2018-08-28T00:31:07.599Z,81.74
2018-08-28T00:33:36.053Z,81.80
2018-08-28T00:36:04.477Z,82.51
2018-08-28T00:38:32.872Z,82.52
2018-08-28T00:41:01.349Z,83.34
2018-08-28T00:43:29.725Z,83.40
2018-08-28T00:45:58.233Z,83.50
2018-08-28T00:48:26.658Z,82.40
2018-08-28T00:50:55.199Z,83.21
2018-08-28T00:53:23.589Z,83.38
2018-08-28T00:55:52.014Z,83.91
2018-08-28T00:58:20.358Z,84.28
2018-08-28T01:00:48.753Z,84.73
2018-08-28T01:03:17.109Z,85.41
2018-08-28T01:05:45.519Z,84.66
2018-08-28T01:08:13.874Z,82.24
2018-08-28T01:10:48.662Z,83.98
2018-08-28T01:13:17.063Z,84.53
2018-08-28T01:15:45.525Z,84.49
2018-08-28T01:18:13.898Z,84.81
2018-08-28T01:20:42.285Z,82.91
2018-08-28T01:23:10.653Z,84.22
2018-08-28T01:25:39.005Z,84.18
2018-08-28T01:28:07.423Z,83.92
2018-08-28T01:30:36.125Z,83.59
2018-08-28T01:33:06.494Z,83.58
2018-08-28T01:35:35.221Z,83.84
2018-08-28T01:38:03.781Z,83.28
2018-08-28T01:40:32.196Z,83.52
2018-08-28T01:43:00.900Z,83.82
2018-08-28T01:45:29.574Z,84.85
2018-08-28T01:47:57.930Z,84.36
2018-08-28T01:50:26.318Z,82.64
2018-08-28T01:52:54.853Z,82.89
2018-08-28T01:55:23.678Z,83.33
2018-08-28T01:57:52.054Z,84.64
2018-08-28T02:00:20.436Z,85.24
2018-08-28T02:02:48.790Z,85.43
2018-08-28T02:05:17.255Z,86.33
2018-08-28T02:07:45.685Z,86.07
2018-08-28T02:10:14.037Z,85.39
2018-08-28T02:12:42.376Z,85.55
2018-08-28T02:15:10.784Z,85.47
2018-08-28T02:17:39.463Z,87.31
2018-08-28T02:20:07.898Z,87.82
2018-08-28T02:22:36.321Z,88.60
2018-08-28T02:25:05.402Z,88.64
2018-08-28T02:27:33.777Z,89.37
2018-08-28T02:30:02.198Z,90.62
2018-08-28T02:32:30.738Z,91.10
2018-08-28T02:34:59.149Z,91.12
2018-08-28T02:37:27.864Z,91.79
2018-08-28T02:39:56.674Z,92.73
2018-08-28T02:42:25.034Z,92.49
2018-08-28T02:44:53.637Z,92.92
2018-08-28T02:47:22.009Z,93.30
2018-08-28T02:49:50.394Z,93.15
2018-08-28T02:52:18.761Z,93.25
2018-08-28T02:54:47.231Z,93.57
2018-08-28T02:57:15.638Z,94.66
2018-08-28T02:59:44.057Z,94.96
2018-08-28T03:02:12.469Z,95.07
2018-08-28T03:04:40.893Z,94.73
2018-08-28T03:07:09.370Z,93.96
2018-08-28T03:09:37.778Z,94.13
2018-08-28T03:12:06.190Z,94.55
2018-08-28T03:14:34.630Z,94.14
2018-08-28T03:17:03.106Z,93.71
2018-08-28T03:19:31.557Z,93.56
2018-08-28T03:21:59.971Z,94.09
2018-08-28T03:24:28.389Z,93.37
2018-08-28T03:26:56.770Z,93.79
2018-08-28T03:29:25.154Z,93.11
2018-08-28T03:31:53.582Z,92.75
2018-08-28T03:34:21.977Z,93.02
2018-08-28T03:36:50.466Z,93.06
2018-08-28T03:39:18.878Z,92.72
2018-08-28T03:41:47.297Z,93.19
2018-08-28T03:44:15.692Z,93.33
2018-08-28T03:46:44.098Z,92.76
2018-08-28T03:49:12.556Z,93.63
2018-08-28T03:51:40.950Z,93.40
2018-08-28T03:54:09.390Z,93.24
2018-08-28T03:56:37.845Z,93.37
2018-08-28T03:59:06.223Z,93.47
2018-08-28T04:01:34.620Z,93.69
2018-08-28T04:04:03.032Z,93.78
2018-08-28T04:06:31.480Z,94.33
2018-08-28T04:08:59.912Z,94.57
2018-08-28T04:11:28.331Z,94.68
2018-08-28T04:13:56.721Z,95.40
2018-08-28T04:16:25.118Z,95.51
2018-08-28T04:18:53.556Z,96.96
2018-08-28T04:21:21.945Z,97.59
2018-08-28T04:23:50.353Z,97.36
2018-08-28T04:26:18.809Z,98.01
2018-08-28T04:28:47.339Z,98.44
2018-08-28T04:31:15.772Z,98.66
2018-08-28T04:33:44.180Z,99.14
2018-08-28T04:36:12.578Z,99.26
2018-08-28T04:38:41.009Z,98.85
2018-08-28T04:41:09.414Z,98.83
2018-08-28T04:43:37.858Z,99.01
2018-08-28T04:46:06.357Z,99.86
2018-08-28T04:48:35.506Z,100.00
2018-08-28T04:51:03.925Z,100.00
2018-08-28T04:53:32.370Z,100.00
2018-08-28T04:56:00.783Z,100.00
2018-08-28T04:58:29.205Z,100.00
2018-08-28T05:00:57.604Z,100.00
2018-08-28T05:03:26.041Z,100.00
2018-08-28T05:05:54.454Z,100.00
2018-08-28T05:08:22.841Z,100.00
2018-08-28T05:10:51.249Z,100.00
2018-08-28T05:13:20.581Z,100.00
2018-08-28T05:15:49.651Z,100.00
2018-08-28T05:18:18.304Z,100.00
2018-08-28T05:20:47.141Z,100.00
2018-08-28T05:23:15.958Z,100.00
2018-08-28T05:25:44.741Z,100.00
2018-08-28T05:28:13.511Z,100.00
2018-08-28T05:30:42.318Z,99.88
2018-08-28T05:33:11.018Z,99.11
2018-08-28T05:35:39.806Z,98.75
2018-08-28T05:38:08.607Z,98.44
2018-08-28T05:40:37.326Z,97.69
2018-08-28T05:43:06.049Z,98.18
2018-08-28T05:45:34.786Z,98.16
2018-08-28T05:48:03.760Z,97.55
2018-08-28T05:50:32.434Z,96.65
2018-08-28T05:53:01.160Z,97.06
2018-08-28T05:55:29.874Z,96.41
2018-08-28T05:57:58.642Z,96.43
2018-08-28T06:00:27.346Z,95.71
2018-08-28T06:02:56.143Z,95.67
2018-08-28T06:05:25.021Z,95.61
2018-08-28T06:07:54.071Z,95.13
2018-08-28T06:10:22.942Z,94.98
2018-08-28T06:12:51.667Z,94.97
2018-08-28T06:15:20.419Z,95.02
2018-08-28T06:17:49.178Z,93.99
2018-08-28T06:20:18.047Z,93.90
2018-08-28T06:22:46.755Z,94.04
2018-08-28T06:25:15.538Z,94.01
2018-08-28T06:27:44.339Z,93.55
2018-08-28T06:30:13.130Z,92.75
2018-08-28T06:32:41.939Z,92.33
2018-08-28T06:35:10.680Z,90.36
2018-08-28T06:37:39.475Z,89.84
2018-08-28T06:40:08.234Z,90.12
2018-08-28T06:42:37.067Z,89.06
2018-08-28T06:45:05.825Z,87.45
2018-08-28T06:47:34.479Z,86.33
2018-08-28T06:50:02.985Z,85.30
2018-08-28T06:52:31.703Z,84.49
2018-08-28T06:55:00.429Z,83.73
2018-08-28T06:57:29.167Z,82.83
2018-08-28T06:59:59.234Z,82.73
2018-08-28T07:02:28.162Z,82.58
2018-08-28T07:05:09.405Z,81.32
2018-08-28T07:07:41.771Z,80.46
2018-08-28T07:10:10.519Z,78.70
2018-08-28T07:12:39.177Z,76.55
2018-08-28T07:15:08.936Z,75.59
2018-08-28T07:17:37.958Z,74.93
2018-08-28T07:20:06.550Z,74.61
2018-08-28T07:22:34.990Z,75.01
2018-08-28T07:25:03.410Z,73.62
2018-08-28T07:27:31.865Z,73.17
2018-08-28T07:30:00.293Z,72.50
2018-08-28T07:32:28.730Z,71.63
2018-08-28T07:34:57.170Z,72.35
2018-08-28T07:37:25.643Z,71.01
2018-08-28T07:39:54.085Z,71.18
2018-08-28T07:42:22.561Z,71.19
2018-08-28T07:44:50.980Z,71.73
2018-08-28T07:47:19.457Z,71.07
2018-08-28T07:49:48.248Z,71.00
2018-08-28T07:52:16.974Z,70.03
2018-08-28T07:54:45.700Z,69.87
2018-08-28T07:57:14.511Z,68.59
2018-08-28T07:59:43.022Z,69.93
2018-08-28T08:02:11.673Z,67.87
2018-08-28T08:04:40.040Z,66.70
2018-08-28T08:07:08.529Z,63.60
2018-08-28T08:09:36.878Z,64.63
2018-08-28T08:12:05.324Z,63.83
2018-08-28T08:14:33.733Z,63.74
2018-08-28T08:17:02.160Z,63.86
2018-08-28T08:19:30.558Z,63.23
2018-08-28T08:21:58.988Z,63.07
2018-08-28T08:24:27.379Z,61.77
2018-08-28T08:26:55.797Z,61.74
2018-08-28T08:29:24.165Z,60.17
2018-08-28T08:31:52.509Z,63.24
2018-08-28T08:34:20.966Z,63.61
2018-08-28T08:36:49.394Z,64.01
2018-08-28T08:39:17.770Z,63.43
2018-08-28T08:41:46.176Z,62.24
2018-08-28T08:44:14.581Z,59.97
2018-08-28T08:46:42.968Z,59.43
2018-08-28T08:49:11.385Z,58.75
2018-08-28T08:51:39.778Z,58.21
2018-08-28T08:54:08.206Z,57.02
2018-08-28T08:56:36.645Z,57.55
2018-08-28T08:59:05.085Z,56.20
2018-08-28T09:01:33.565Z,54.67
2018-08-28T09:04:02.130Z,55.24
2018-08-28T09:06:30.506Z,54.53
2018-08-28T09:08:58.909Z,55.67
2018-08-28T09:11:27.311Z,54.71
2018-08-28T09:13:55.772Z,54.83
2018-08-28T09:16:24.130Z,55.91
2018-08-28T09:18:52.601Z,56.02
2018-08-28T09:21:20.981Z,55.94
2018-08-28T09:23:49.408Z,54.85
2018-08-28T09:26:17.925Z,53.96
2018-08-28T09:28:46.333Z,53.34
2018-08-28T09:31:14.763Z,54.03
2018-08-28T09:33:43.218Z,53.91
2018-08-28T09:36:11.627Z,52.50
2018-08-28T09:38:40.032Z,52.06
2018-08-28T09:41:08.489Z,52.43
2018-08-28T09:43:37.483Z,52.35
2018-08-28T09:46:05.982Z,51.68
2018-08-28T09:48:34.443Z,52.58
2018-08-28T09:51:02.844Z,49.86
2018-08-28T09:53:31.201Z,51.08
2018-08-28T09:55:59.586Z,51.73
2018-08-28T09:58:27.958Z,52.55
2018-08-28T10:01:01.657Z,51.49
2018-08-28T10:03:30.029Z,51.36
2018-08-28T10:05:58.418Z,51.20
2018-08-28T10:08:26.790Z,51.75
2018-08-28T10:10:55.472Z,51.19
2018-08-28T10:13:29.474Z,52.36
2018-08-28T10:15:58.103Z,52.44
2018-08-28T10:18:26.514Z,52.23
2018-08-28T10:20:54.897Z,53.06
2018-08-28T10:23:23.271Z,53.49
2018-08-28T10:25:51.694Z,51.00
2018-08-28T10:28:20.093Z,52.60
2018-08-28T10:30:48.513Z,54.23
2018-08-28T10:33:16.960Z,53.58
2018-08-28T10:38:12.755Z,55.02
2018-08-28T10:40:41.094Z,54.56
2018-08-28T10:43:09.456Z,54.74
2018-08-28T10:45:37.849Z,53.37
2018-08-28T10:48:06.294Z,52.50
2018-08-28T10:50:34.692Z,50.64
2018-08-28T10:53:03.098Z,51.30
2018-08-28T10:55:31.525Z,53.17
2018-08-28T10:57:59.974Z,53.44
2018-08-28T11:00:28.399Z,52.47
2018-08-28T11:02:56.797Z,51.58
2018-08-28T11:05:25.214Z,52.93
2018-08-28T11:07:53.621Z,53.41
2018-08-28T11:10:22.049Z,52.94
2018-08-28T11:12:50.445Z,53.41
2018-08-28T11:15:18.853Z,52.74
2018-08-28T11:17:47.268Z,52.92
2018-08-28T11:20:15.734Z,54.09
2018-08-28T11:22:44.154Z,54.08
2018-08-28T11:25:12.590Z,52.69
2018-08-28T11:27:40.993Z,54.09
2018-08-28T11:30:09.509Z,53.59
2018-08-28T11:32:37.937Z,53.25
2018-08-28T11:35:06.469Z,52.71
2018-08-28T11:37:34.894Z,52.94
2018-08-28T11:40:03.325Z,52.19
2018-08-28T11:42:31.761Z,50.76
2018-08-28T11:45:00.161Z,51.31
2018-08-28T11:47:28.585Z,50.25
2018-08-28T11:49:57.025Z,50.49
2018-08-28T11:52:26.536Z,49.55
2018-08-28T11:54:54.990Z,50.41
2018-08-28T11:57:24.154Z,48.30
2018-08-28T11:59:52.648Z,47.58
2018-08-28T12:02:21.142Z,49.96
2018-08-28T12:04:50.426Z,51.56
2018-08-28T12:07:18.984Z,51.77
2018-08-28T12:09:48.221Z,51.53
2018-08-28T12:12:16.662Z,51.50
2018-08-28T12:14:45.082Z,51.78
2018-08-28T12:17:13.724Z,50.90
2018-08-28T12:19:42.198Z,49.13
2018-08-28T12:22:10.899Z,49.49
2018-08-28T12:24:39.375Z,49.11
2018-08-28T12:27:07.813Z,49.07
2018-08-28T12:29:36.241Z,48.32
2018-08-28T12:32:04.813Z,47.42
2018-08-28T12:34:33.241Z,48.49
2018-08-28T12:37:01.752Z,48.31
2018-08-28T12:39:30.166Z,47.36
2018-08-28T12:41:58.708Z,47.24
2018-08-28T12:44:27.233Z,46.81
2018-08-28T12:46:55.675Z,45.91
2018-08-28T12:49:24.086Z,46.24
2018-08-28T12:51:52.546Z,47.60
2018-08-28T12:54:21.044Z,45.83
2018-08-28T12:56:49.428Z,44.37
2018-08-28T12:59:17.824Z,45.73
2018-08-28T13:01:46.226Z,44.92
2018-08-28T13:04:14.610Z,44.42
2018-08-28T13:06:43.001Z,44.66
2018-08-28T13:09:11.381Z,43.96
2018-08-28T13:11:39.801Z,44.28
2018-08-28T13:14:08.182Z,44.56
2018-08-28T13:16:36.536Z,44.65
2018-08-28T13:19:05.141Z,44.53
2018-08-28T13:21:33.500Z,41.48
2018-08-28T13:24:01.941Z,40.12
2018-08-28T13:26:30.315Z,40.35
2018-08-28T13:28:58.680Z,36.35
2018-08-28T13:31:27.037Z,37.27
2018-08-28T13:33:55.418Z,34.39
2018-08-28T13:36:23.765Z,35.28
2018-08-28T13:38:52.195Z,35.63
2018-08-28T13:41:20.577Z,33.76
2018-08-28T13:43:49.001Z,34.36
2018-08-28T13:46:17.395Z,33.53
2018-08-28T13:48:45.856Z,34.67
2018-08-28T13:51:14.293Z,33.35
2018-08-28T13:53:42.741Z,34.04
2018-08-28T13:56:11.122Z,32.94
2018-08-28T13:58:39.504Z,33.95
2018-08-28T14:01:07.884Z,33.65
2018-08-28T14:03:36.289Z,33.30
2018-08-28T14:06:04.674Z,33.92
2018-08-28T14:08:33.081Z,33.65
2018-08-28T14:11:01.449Z,33.45
2018-08-28T14:13:29.850Z,33.94
2018-08-28T14:15:58.268Z,32.77
2018-08-28T14:18:26.673Z,32.87
2018-08-28T14:20:55.056Z,33.37
2018-08-28T14:23:23.477Z,32.18
2018-08-28T14:25:52.479Z,33.22
2018-08-28T14:28:20.954Z,32.67
2018-08-28T14:30:49.357Z,32.34
2018-08-28T14:33:17.768Z,32.09
2018-08-28T14:35:46.329Z,31.94
2018-08-28T14:38:14.551Z,30.91
2018-08-28T14:40:42.943Z,32.25
2018-08-28T14:43:11.353Z,32.32
2018-08-28T14:45:39.761Z,33.85
2018-08-28T14:48:08.156Z,33.14
2018-08-28T14:50:36.580Z,33.98
2018-08-28T14:53:04.981Z,32.25
2018-08-28T14:55:33.443Z,33.97
2018-08-28T14:58:01.879Z,34.70
2018-08-28T15:00:30.328Z,33.71
2018-08-28T15:02:58.751Z,34.78
2018-08-28T15:05:27.185Z,32.81
2018-08-28T15:07:55.652Z,33.53
2018-08-28T15:10:27.546Z,33.23
2018-08-28T15:12:55.977Z,32.45
2018-08-28T15:15:24.436Z,31.77
2018-08-28T15:17:52.837Z,32.23
2018-08-28T15:20:21.266Z,32.96
2018-08-28T15:22:49.706Z,32.11
2018-08-28T15:25:18.181Z,32.59
2018-08-28T15:27:46.594Z,32.05
2018-08-28T15:30:15.025Z,32.91
2018-08-28T15:32:43.506Z,33.62
2018-08-28T15:35:11.989Z,33.35
2018-08-28T15:37:40.390Z,32.50
2018-08-28T15:40:08.869Z,32.91
2018-08-28T15:42:37.254Z,32.89
2018-08-28T15:45:05.929Z,31.88
2018-08-28T15:47:34.325Z,31.89
2018-08-28T15:50:02.769Z,34.44
2018-08-28T15:52:31.201Z,34.60
2018-08-28T15:54:59.674Z,34.62
2018-08-28T15:57:28.154Z,34.93
2018-08-28T15:59:56.590Z,33.24
2018-08-28T16:02:25.018Z,35.24
2018-08-28T16:05:00.685Z,34.76
2018-08-28T16:07:29.106Z,35.82
2018-08-28T16:09:57.531Z,35.23
2018-08-28T16:12:26.058Z,35.84
2018-08-28T16:14:59.610Z,35.63
2018-08-28T16:17:28.033Z,36.58
2018-08-28T16:19:56.485Z,37.10
2018-08-28T16:22:29.101Z,35.74
2018-08-28T16:24:57.541Z,37.41
2018-08-28T16:27:25.995Z,37.56
2018-08-28T16:29:54.460Z,37.51
2018-08-28T16:32:22.895Z,37.26
2018-08-28T16:34:51.329Z,39.15
2018-08-28T16:37:22.644Z,38.24
2018-08-28T16:39:51.067Z,38.69
2018-08-28T16:42:19.566Z,40.87
2018-08-28T16:44:47.989Z,42.88
2018-08-28T16:47:16.433Z,44.54
2018-08-28T16:49:44.838Z,46.07
2018-08-28T16:52:13.257Z,45.89
2018-08-28T16:54:41.822Z,46.92
2018-08-28T16:57:10.294Z,46.31
2018-08-28T16:59:38.987Z,46.73
2018-08-28T17:02:07.462Z,47.40
2018-08-28T17:04:35.894Z,47.91
2018-08-28T17:07:04.373Z,47.95
2018-08-28T17:09:32.844Z,48.86
2018-08-28T17:12:01.266Z,49.00
2018-08-28T17:14:29.673Z,48.44
2018-08-28T17:16:58.126Z,49.48
2018-08-28T17:19:27.022Z,49.82
2018-08-28T17:21:55.449Z,49.68
2018-08-28T17:24:23.872Z,50.04
2018-08-28T17:26:52.515Z,50.31
2018-08-28T17:29:21.225Z,50.44
2018-08-28T17:31:49.705Z,50.75
2018-08-28T17:34:18.106Z,51.12
2018-08-28T17:36:46.644Z,51.72
2018-08-28T17:39:15.034Z,52.10
2018-08-28T17:41:43.463Z,52.42
2018-08-28T17:44:12.347Z,52.53
2018-08-28T17:46:40.826Z,52.91
2018-08-28T17:49:09.289Z,52.76
2018-08-28T17:51:37.697Z,52.68
2018-08-28T17:54:06.320Z,53.46
2018-08-28T17:56:34.749Z,53.77
2018-08-28T17:59:03.269Z,53.91
2018-08-28T18:01:31.715Z,54.15
2018-08-28T18:04:00.361Z,54.84
2018-08-28T18:06:28.792Z,55.03
2018-08-28T18:08:57.213Z,55.38
2018-08-28T18:11:25.657Z,56.94
2018-08-28T18:13:54.112Z,56.88
2018-08-28T18:16:22.587Z,57.76
2018-08-28T18:18:51.017Z,58.28
2018-08-28T18:21:19.845Z,58.04
2018-08-28T18:23:48.410Z,58.21
2018-08-28T18:26:17.013Z,59.66
2018-08-28T18:28:45.635Z,60.80
2018-08-28T18:31:14.154Z,62.11
2018-08-28T18:33:42.822Z,63.08
2018-08-28T18:36:11.331Z,63.18
2018-08-28T18:38:39.879Z,64.84
2018-08-28T18:41:08.535Z,64.36
2018-08-28T18:43:37.067Z,64.59
2018-08-28T18:46:05.606Z,64.55
2018-08-28T18:48:34.672Z,64.51
2018-08-28T18:51:03.242Z,66.29
2018-08-28T18:53:39.935Z,66.65
2018-08-28T18:56:08.526Z,66.97
2018-08-28T18:58:36.985Z,68.37
2018-08-28T19:01:06.198Z,68.80
2018-08-28T19:03:34.958Z,68.70
2018-08-28T19:06:04.048Z,69.05
2018-08-28T19:08:33.183Z,68.69
2018-08-28T19:11:01.830Z,68.87
2018-08-28T19:13:31.393Z,69.63
2018-08-28T19:16:00.587Z,69.54
2018-08-28T19:18:29.244Z,70.32
2018-08-28T19:21:04.416Z,71.04
2018-08-28T19:23:33.081Z,70.97
2018-08-28T19:26:02.856Z,71.28
2018-08-28T19:28:31.575Z,71.16
2018-08-28T19:31:00.838Z,71.41
2018-08-28T19:33:29.989Z,70.80
2018-08-28T19:35:59.628Z,70.55
2018-08-28T19:38:28.428Z,70.19
2018-08-28T19:40:57.077Z,69.52
2018-08-28T19:43:26.364Z,69.99
2018-08-28T19:45:54.938Z,70.97
2018-08-28T19:48:23.642Z,70.39
2018-08-28T19:50:52.241Z,70.62
2018-08-28T19:53:21.438Z,71.44
2018-08-28T19:55:50.150Z,70.77
2018-08-28T19:58:18.996Z,71.10
2018-08-28T20:00:48.942Z,71.71
2018-08-28T20:03:17.618Z,71.31
2018-08-28T20:05:46.536Z,72.50
2018-08-28T20:08:16.592Z,72.02
2018-08-28T20:10:45.182Z,71.91
2018-08-28T20:13:14.076Z,71.97
2018-08-28T20:15:43.735Z,72.34
2018-08-28T20:18:12.603Z,71.87
2018-08-28T20:20:42.671Z,71.69
2018-08-28T20:23:13.455Z,72.58
2018-08-28T20:25:45.712Z,72.39
2018-08-28T20:28:16.659Z,72.69
2018-08-28T20:30:45.465Z,72.43
2018-08-28T20:33:14.151Z,73.25
2018-08-28T20:35:43.485Z,72.86
2018-08-28T20:38:12.250Z,72.97
2018-08-28T20:40:42.928Z,72.72
2018-08-28T20:43:11.930Z,72.84
2018-08-28T20:45:40.527Z,73.45
2018-08-28T20:48:11.099Z,74.19
2018-08-28T20:50:39.750Z,74.29
2018-08-28T20:53:08.397Z,74.79
2018-08-28T20:55:37.383Z,75.20
2018-08-28T20:58:07.330Z,75.16
2018-08-28T21:00:36.843Z,74.94
2018-08-28T21:03:07.158Z,74.97
2018-08-28T21:05:36.409Z,75.86
2018-08-28T21:08:05.449Z,75.87
2018-08-28T21:10:34.078Z,76.80
2018-08-28T21:13:03.289Z,76.76
2018-08-28T21:15:31.706Z,77.44
2018-08-28T21:18:00.550Z,76.59
2018-08-28T21:20:30.453Z,76.35
2018-08-28T21:22:59.496Z,76.72
2018-08-28T21:25:29.002Z,76.53
2018-08-28T21:27:57.656Z,77.14
2018-08-28T21:30:26.479Z,77.33
2018-08-28T21:32:55.029Z,76.69
2018-08-28T21:35:23.945Z,76.57
2018-08-28T21:37:58.880Z,77.30
2018-08-28T21:40:27.357Z,77.54
2018-08-28T21:42:55.898Z,77.99
2018-08-28T21:45:24.492Z,77.43
2018-08-28T21:47:52.955Z,77.85
2018-08-28T21:50:21.501Z,77.46
2018-08-28T21:52:50.277Z,77.68
2018-08-28T21:55:19.169Z,77.02
2018-08-28T21:57:47.686Z,77.21
2018-08-28T22:00:16.226Z,77.20
2018-08-28T22:02:44.862Z,76.73
2018-08-28T22:05:13.401Z,77.30
2018-08-28T22:07:42.945Z,77.88
2018-08-28T22:10:11.536Z,77.13
2018-08-28T22:12:40.097Z,78.25
2018-08-28T22:15:12.825Z,78.47
2018-08-28T22:17:41.749Z,79.21
2018-08-28T22:20:10.625Z,78.96
2018-08-28T22:22:39.113Z,78.93
2018-08-28T22:25:07.695Z,79.36
2018-08-28T22:27:36.281Z,79.83
2018-08-28T22:30:05.224Z,79.95
2018-08-28T22:32:33.620Z,80.14
2018-08-28T22:35:02.229Z,79.58
2018-08-28T22:37:30.872Z,79.27
2018-08-28T22:39:59.232Z,78.84
2018-08-28T22:48:12.579Z,79.76
2018-08-28T22:50:40.957Z,79.05
2018-08-28T22:53:09.349Z,79.45
2018-08-28T22:55:37.746Z,80.17
2018-08-28T22:58:06.210Z,80.86
2018-08-28T23:00:34.621Z,80.30
2018-08-28T23:03:02.977Z,80.78
2018-08-28T23:05:31.339Z,81.52
2018-08-28T23:07:59.721Z,80.86
2018-08-28T23:10:28.100Z,81.43
2018-08-28T23:12:56.496Z,81.16
2018-08-28T23:15:24.901Z,82.30
2018-08-28T23:17:53.274Z,83.08
2018-08-28T23:20:21.633Z,82.61
2018-08-28T23:22:49.993Z,82.66
2018-08-28T23:25:18.365Z,82.34
2018-08-28T23:27:46.777Z,83.01
2018-08-28T23:30:15.126Z,82.73
2018-08-28T23:32:43.496Z,83.01
2018-08-28T23:35:11.972Z,83.19
2018-08-28T23:37:40.309Z,83.21
2018-08-28T23:40:08.712Z,84.04
2018-08-28T23:42:37.071Z,83.89
2018-08-28T23:45:05.681Z,84.74
2018-08-28T23:47:34.070Z,84.52
2018-08-28T23:50:02.448Z,84.12
2018-08-28T23:52:30.827Z,84.51
2018-08-28T23:54:59.209Z,84.45
2018-08-28T23:57:27.573Z,84.74
2018-08-28T23:59:55.947Z,84.07
